Time;durP1;ratioP1;P1;durP2;ratioP2;P2;SDS_P1;SDS_P2;PMS_P1;PMS_P2;Temp;Humidity;BMP_temperature;BMP_pressure;BME280_temperature;BME280_humidity;BME280_pressure;Samples;Min_cycle;Max_cycle;Signal;HPM_P1;HPM_P2
2022/03/27 00:02:24;;;;;;;10.18;5.95;;;8.20;96.00;;;;;;5059077;28;20613;-69
2022/03/27 00:04:50;;;;;;;11.57;5.25;;;8.20;95.80;;;;;;5059531;28;20165;-69
2022/03/27 00:07:16;;;;;;;12.45;5.63;;;8.20;95.80;;;;;;5057726;28;20211;-69
2022/03/27 00:09:42;;;;;;;8.80;6.07;;;8.20;95.80;;;;;;5059300;28;20169;-69
2022/03/27 00:12:08;;;;;;;10.98;5.45;;;8.10;96.00;;;;;;5059061;28;20200;-69
2022/03/27 00:14:34;;;;;;;8.30;4.75;;;7.90;96.80;;;;;;5057474;28;20165;-69
2022/03/27 00:17:00;;;;;;;9.10;5.28;;;7.70;97.00;;;;;;5059462;28;20218;-70
2022/03/27 00:19:26;;;;;;;9.48;5.70;;;7.40;97.70;;;;;;5059770;28;20177;-70
2022/03/27 00:21:52;;;;;;;12.70;5.93;;;7.10;98.20;;;;;;5059435;28;20172;-70
2022/03/27 00:24:18;;;;;;;10.40;6.32;;;6.90;98.80;;;;;;5057595;28;20170;-70
2022/03/27 00:26:43;;;;;;;13.38;7.60;;;6.60;99.10;;;;;;5060159;28;20185;-70
2022/03/27 00:29:10;;;;;;;12.80;6.88;;;6.40;99.40;;;;;;5058384;28;20177;-70
2022/03/27 00:31:38;;;;;;;11.85;6.47;;;6.40;99.90;;;;;;5059583;28;20174;-70
2022/03/27 00:34:05;;;;;;;11.15;6.38;;;6.30;99.90;;;;;;5058583;28;20223;-70
2022/03/27 00:36:31;;;;;;;11.15;6.70;;;6.20;99.90;;;;;;5059105;28;20724;-70
2022/03/27 00:38:57;;;;;;;12.77;7.28;;;5.90;99.90;;;;;;5057148;28;20165;-70
2022/03/27 00:41:26;;;;;;;13.85;7.18;;;5.90;99.90;;;;;;5058515;28;20164;-70
2022/03/27 00:43:52;;;;;;;11.13;6.53;;;6.00;99.90;;;;;;5046836;28;20182;-70
2022/03/27 00:46:17;;;;;;;18.42;7.35;;;5.90;99.90;;;;;;5059189;28;20203;-70
2022/03/27 00:48:43;;;;;;;14.95;7.18;;;5.90;99.90;;;;;;5057659;28;20161;-70
2022/03/27 00:51:09;;;;;;;10.90;6.38;;;5.70;99.90;;;;;;5057661;28;20196;-70
2022/03/27 00:53:35;;;;;;;22.17;7.47;;;5.80;99.90;;;;;;5058816;28;20201;-70
2022/03/27 00:56:01;;;;;;;11.50;5.80;;;5.90;99.90;;;;;;5057376;28;20676;-70
2022/03/27 00:58:27;;;;;;;9.55;5.60;;;5.90;99.90;;;;;;5057514;28;20209;-69
2022/03/27 01:01:01;;;;;;;13.35;6.57;;;6.10;99.90;;;;;;5057832;28;20229;-69
2022/03/27 01:03:28;;;;;;;8.95;5.68;;;6.50;99.40;;;;;;5057953;28;20695;-69
2022/03/27 01:05:57;;;;;;;10.90;6.82;;;6.50;99.30;;;;;;5056720;28;20548;-69
2022/03/27 01:11:16;;;;;;;9.32;5.47;;;6.80;98.50;;;;;;5058680;28;20176;-69
2022/03/27 01:14:03;;;;;;;9.80;6.03;;;6.80;98.50;;;;;;5057047;28;20193;-69
2022/03/27 01:16:38;;;;;;;9.98;6.05;;;6.70;98.90;;;;;;5057684;28;20256;-69
2022/03/27 01:19:05;;;;;;;10.40;6.82;;;6.40;99.40;;;;;;5059703;28;20665;-69
2022/03/27 01:21:33;;;;;;;15.40;6.35;;;6.30;99.80;;;;;;5056785;28;20204;-69
2022/03/27 01:23:58;;;;;;;12.70;6.57;;;6.30;99.80;;;;;;5056257;28;20189;-69
2022/03/27 01:26:24;;;;;;;14.98;6.40;;;6.20;99.60;;;;;;5058428;28;20165;-69
2022/03/27 01:28:51;;;;;;;10.40;5.13;;;6.30;99.60;;;;;;5056753;28;20168;-69
2022/03/27 01:31:18;;;;;;;11.15;6.10;;;6.30;99.70;;;;;;5059864;28;20211;-69
2022/03/27 01:33:44;;;;;;;10.35;6.53;;;6.50;99.20;;;;;;5056785;28;20197;-69
2022/03/27 01:36:10;;;;;;;8.85;5.13;;;6.40;99.30;;;;;;5056665;28;20552;-69
2022/03/27 01:38:36;;;;;;;8.80;6.28;;;6.30;99.30;;;;;;5058156;28;20591;-69
2022/03/27 01:41:01;;;;;;;9.52;5.95;;;6.30;99.60;;;;;;5056548;28;20173;-69
2022/03/27 01:43:27;;;;;;;10.95;6.38;;;6.20;99.90;;;;;;5057032;28;20750;-69
2022/03/27 01:45:53;;;;;;;13.05;6.57;;;6.10;99.90;;;;;;5058233;28;20204;-69
2022/03/27 01:48:19;;;;;;;9.05;5.90;;;6.00;99.90;;;;;;5056047;28;20174;-69
2022/03/27 01:50:57;;;;;;;10.73;6.70;;;5.90;99.90;;;;;;5057361;28;20159;-69
2022/03/27 01:53:23;;;;;;;11.40;6.32;;;5.80;99.90;;;;;;5058042;28;20160;-69
2022/03/27 01:55:49;;;;;;;14.43;6.63;;;5.70;99.90;;;;;;5057174;28;20197;-69
2022/03/27 01:58:15;;;;;;;12.82;7.35;;;5.50;99.90;;;;;;5055601;28;20284;-69
2022/03/27 02:00:43;;;;;;;11.57;6.30;;;5.40;99.90;;;;;;5057839;28;20164;-69
2022/03/27 02:03:09;;;;;;;12.98;6.28;;;5.30;99.90;;;;;;5057241;28;20173;-69
2022/03/27 02:05:35;;;;;;;17.83;6.90;;;5.30;99.90;;;;;;5055944;28;20193;-69
2022/03/27 02:08:01;;;;;;;12.68;6.80;;;5.30;99.90;;;;;;5057616;28;20556;-70
2022/03/27 02:10:27;;;;;;;12.65;7.03;;;5.20;99.90;;;;;;5057008;28;20161;-71
2022/03/27 02:12:53;;;;;;;14.18;6.63;;;5.20;99.90;;;;;;5060150;28;20192;-71
2022/03/27 02:15:19;;;;;;;11.43;6.85;;;5.30;99.90;;;;;;5062241;28;20195;-70
2022/03/27 02:17:45;;;;;;;12.02;6.00;;;5.20;99.90;;;;;;5065009;28;20172;-70
2022/03/27 02:20:12;;;;;;;11.95;6.05;;;5.20;99.90;;;;;;5053082;28;20172;-70
2022/03/27 02:22:38;;;;;;;11.30;6.45;;;5.10;99.90;;;;;;5064489;28;20193;-71
2022/03/27 02:25:05;;;;;;;14.13;6.65;;;4.90;99.90;;;;;;5062037;28;20193;-71
2022/03/27 02:27:30;;;;;;;11.23;6.00;;;4.80;99.90;;;;;;5063883;28;20225;-71
2022/03/27 02:29:56;;;;;;;15.20;5.78;;;4.70;99.90;;;;;;5062257;28;20720;-70
2022/03/27 02:32:22;;;;;;;9.43;5.97;;;4.60;99.90;;;;;;5064880;28;20199;-70
2022/03/27 02:34:48;;;;;;;10.60;6.82;;;4.60;99.90;;;;;;5062990;28;20195;-71
2022/03/27 02:37:14;;;;;;;12.18;6.45;;;4.60;99.90;;;;;;5064155;28;20215;-70
2022/03/27 02:39:43;;;;;;;12.82;6.75;;;4.40;99.90;;;;;;5062444;28;20632;-70
2022/03/27 02:42:09;;;;;;;10.32;6.05;;;4.30;99.90;;;;;;5062873;28;20264;-70
2022/03/27 02:44:35;;;;;;;11.50;6.80;;;4.20;99.90;;;;;;5061317;28;20197;-70
2022/03/27 02:47:01;;;;;;;12.30;7.28;;;4.20;99.90;;;;;;5063308;28;20169;-69
2022/03/27 02:49:27;;;;;;;13.00;7.05;;;4.20;99.90;;;;;;5062880;28;20181;-70
2022/03/27 02:51:53;;;;;;;12.05;7.15;;;4.20;99.90;;;;;;5062147;28;20168;-70
2022/03/27 02:54:19;;;;;;;13.40;6.80;;;4.00;99.90;;;;;;5063828;28;20275;-71
2022/03/27 02:56:46;;;;;;;12.00;6.43;;;3.90;99.90;;;;;;5053087;28;20193;-70
2022/03/27 02:59:12;;;;;;;14.55;7.05;;;3.90;99.90;;;;;;5062118;28;20219;-70
2022/03/27 03:01:37;;;;;;;10.38;6.18;;;3.70;99.90;;;;;;5063824;28;20202;-71
2022/03/27 03:04:04;;;;;;;13.85;7.25;;;3.70;99.90;;;;;;5052654;28;20189;-71
2022/03/27 03:06:32;;;;;;;14.32;8.13;;;3.80;99.90;;;;;;5062669;28;20689;-70
2022/03/27 03:08:58;;;;;;;13.18;7.80;;;3.90;99.90;;;;;;5064000;28;20172;-71
2022/03/27 03:11:24;;;;;;;15.20;7.50;;;3.90;99.90;;;;;;5062398;28;20228;-70
2022/03/27 03:13:52;;;;;;;16.60;7.50;;;4.00;99.90;;;;;;5062364;28;20211;-71
2022/03/27 03:16:20;;;;;;;13.20;7.10;;;4.00;99.90;;;;;;5063859;28;20241;-71
2022/03/27 03:18:46;;;;;;;13.48;7.63;;;4.00;99.90;;;;;;5062703;28;20487;-71
2022/03/27 03:21:12;;;;;;;13.15;7.15;;;3.80;99.90;;;;;;5062184;28;20172;-71
2022/03/27 03:23:38;;;;;;;18.23;7.03;;;3.90;99.90;;;;;;5061513;28;20191;-71
2022/03/27 03:26:07;;;;;;;12.02;6.68;;;3.90;99.90;;;;;;5059060;28;20165;-71
2022/03/27 03:28:33;;;;;;;13.27;6.90;;;3.70;99.90;;;;;;5058857;28;20226;-70
2022/03/27 03:30:59;;;;;;;10.00;6.47;;;3.70;99.90;;;;;;5060440;28;20184;-71
2022/03/27 03:33:26;;;;;;;15.32;7.85;;;3.70;99.90;;;;;;5058944;28;20197;-71
2022/03/27 03:35:52;;;;;;;15.77;8.05;;;3.60;99.90;;;;;;5058812;28;20224;-70
2022/03/27 03:38:19;;;;;;;15.07;7.68;;;3.50;99.90;;;;;;5060588;28;20188;-71
2022/03/27 03:40:44;;;;;;;15.10;6.45;;;3.60;99.90;;;;;;5058856;28;20161;-71
2022/03/27 03:43:11;;;;;;;12.60;6.93;;;3.50;99.90;;;;;;5058907;28;20171;-70
2022/03/27 03:45:37;;;;;;;13.43;6.25;;;3.60;99.90;;;;;;5050535;28;20157;-71
2022/03/27 03:48:06;;;;;;;12.88;6.93;;;3.50;99.90;;;;;;5058586;28;20610;-70
2022/03/27 03:50:35;;;;;;;11.52;7.20;;;3.60;99.90;;;;;;5058626;28;20165;-70
2022/03/27 03:53:02;;;;;;;11.93;7.80;;;3.50;99.90;;;;;;5058340;28;20521;-72
2022/03/27 03:55:28;;;;;;;12.43;7.22;;;3.40;99.90;;;;;;5059014;28;20220;-70
2022/03/27 03:57:56;;;;;;;13.18;7.22;;;3.50;99.90;;;;;;5059927;28;20220;-71
2022/03/27 04:00:23;;;;;;;19.15;7.75;;;3.50;99.90;;;;;;5058109;28;20182;-72
2022/03/27 04:02:49;;;;;;;10.60;6.40;;;3.40;99.90;;;;;;5058792;28;20157;-69
2022/03/27 04:05:15;;;;;;;11.27;6.75;;;3.40;99.90;;;;;;5059875;28;20202;-71
2022/03/27 04:07:41;;;;;;;16.95;7.28;;;3.40;99.90;;;;;;5057825;28;20166;-71
2022/03/27 04:10:07;;;;;;;17.77;7.00;;;3.50;99.90;;;;;;5058940;28;20164;-71
2022/03/27 04:12:33;;;;;;;11.85;7.93;;;3.50;99.90;;;;;;5059377;28;20196;-71
2022/03/27 04:14:59;;;;;;;13.63;6.85;;;3.30;99.90;;;;;;5057455;28;20200;-72
2022/03/27 04:17:25;;;;;;;11.23;6.82;;;3.20;99.90;;;;;;5059005;28;20545;-72
2022/03/27 04:19:51;;;;;;;12.48;7.20;;;3.10;99.90;;;;;;5058948;28;20185;-71
2022/03/27 04:22:17;;;;;;;13.82;6.35;;;3.10;99.90;;;;;;5057444;28;20525;-71
2022/03/27 04:24:44;;;;;;;14.85;6.80;;;2.90;99.90;;;;;;5059088;28;20264;-71
2022/03/27 04:27:10;;;;;;;13.77;8.07;;;2.90;99.90;;;;;;5058624;28;20184;-70
2022/03/27 04:29:36;;;;;;;12.00;6.32;;;2.70;99.90;;;;;;5057312;28;20169;-71
2022/03/27 04:32:02;;;;;;;15.20;7.07;;;2.60;99.90;;;;;;5059281;28;20172;-70
2022/03/27 04:34:28;;;;;;;12.75;7.13;;;2.70;99.90;;;;;;5058200;28;20260;-70
2022/03/27 04:36:54;;;;;;;14.15;8.15;;;2.70;99.90;;;;;;5057237;28;20196;-71
2022/03/27 04:39:22;;;;;;;12.75;6.38;;;2.70;99.90;;;;;;5059247;28;20165;-69
2022/03/27 04:41:48;;;;;;;13.57;7.32;;;2.70;99.90;;;;;;5058225;28;20675;-69
2022/03/27 04:44:14;;;;;;;13.77;7.30;;;2.70;99.90;;;;;;5057256;28;20223;-69
2022/03/27 04:46:40;;;;;;;13.05;6.93;;;2.80;99.90;;;;;;5059072;28;20191;-70
2022/03/27 04:49:06;;;;;;;11.75;6.25;;;3.00;99.90;;;;;;5057613;28;20173;-70
2022/03/27 04:51:32;;;;;;;12.75;6.88;;;3.10;99.90;;;;;;5057843;28;20222;-70
2022/03/27 04:53:58;;;;;;;14.93;7.32;;;3.20;99.90;;;;;;5058664;28;20206;-71
2022/03/27 04:56:25;;;;;;;11.25;6.65;;;3.40;99.90;;;;;;5057175;28;20201;-70
2022/03/27 04:58:50;;;;;;;16.13;8.63;;;3.50;99.90;;;;;;5057458;28;20244;-70
2022/03/27 05:01:16;;;;;;;14.43;6.90;;;3.50;99.90;;;;;;5058691;28;20183;-70
2022/03/27 05:03:42;;;;;;;14.82;7.47;;;3.60;99.90;;;;;;5056727;28;20219;-70
2022/03/27 05:06:08;;;;;;;14.18;7.63;;;3.70;99.90;;;;;;5057824;28;20165;-70
2022/03/27 05:08:35;;;;;;;16.27;7.43;;;3.80;99.90;;;;;;5058455;28;20216;-71
2022/03/27 05:11:01;;;;;;;17.20;8.05;;;3.60;99.90;;;;;;5056680;28;20240;-71
2022/03/27 05:13:27;;;;;;;12.55;7.68;;;3.60;99.90;;;;;;5057789;28;20192;-70
2022/03/27 05:15:53;;;;;;;15.10;7.05;;;3.60;99.90;;;;;;5048520;28;20264;-70
2022/03/27 05:18:19;;;;;;;16.67;8.77;;;3.60;99.90;;;;;;5056470;28;20166;-72
2022/03/27 05:20:46;;;;;;;17.27;7.53;;;3.60;99.90;;;;;;5057914;28;20169;-71
2022/03/27 05:23:12;;;;;;;12.88;7.75;;;3.80;99.90;;;;;;5057614;28;20172;-71
2022/03/27 05:25:41;;;;;;;16.75;7.18;;;4.00;99.90;;;;;;5046523;28;20170;-70
2022/03/27 05:28:11;;;;;;;15.32;8.18;;;4.30;99.90;;;;;;5057538;28;20160;-69
2022/03/27 05:30:38;;;;;;;13.43;8.13;;;4.60;99.90;;;;;;5048759;28;20172;-70
2022/03/27 05:33:04;;;;;;;17.38;8.85;;;5.10;99.90;;;;;;5056462;28;20618;-71
2022/03/27 05:35:30;;;;;;;14.75;8.93;;;5.50;99.90;;;;;;5057099;28;20168;-71
2022/03/27 05:37:58;;;;;;;17.95;8.27;;;6.10;99.90;;;;;;5057934;28;20557;-71
2022/03/27 05:40:25;;;;;;;13.23;7.50;;;6.90;99.90;;;;;;5056582;28;20212;-70
2022/03/27 05:42:51;;;;;;;14.95;8.68;;;7.50;99.90;;;;;;5056746;28;20215;-70
2022/03/27 05:45:19;;;;;;;15.80;8.55;;;8.20;99.90;;;;;;5057998;28;20200;-71
2022/03/27 05:47:46;;;;;;;12.68;8.20;;;8.50;99.20;;;;;;5055684;28;20169;-71
2022/03/27 05:50:18;;;;;;;14.32;8.02;;;8.70;98.90;;;;;;5056644;28;20164;-71
2022/03/27 05:52:45;;;;;;;13.82;8.43;;;9.20;97.80;;;;;;5044047;28;20172;-71
2022/03/27 05:55:12;;;;;;;15.85;9.00;;;9.20;97.70;;;;;;5056591;28;20204;-71
2022/03/27 05:57:39;;;;;;;16.55;9.35;;;9.10;98.20;;;;;;5057799;28;20193;-70
2022/03/27 06:00:07;;;;;;;16.70;8.77;;;9.10;98.30;;;;;;5056027;28;20209;-70
2022/03/27 06:02:33;;;;;;;14.93;9.27;;;9.20;98.30;;;;;;5056359;28;20320;-70
2022/03/27 06:04:59;;;;;;;15.23;9.35;;;9.10;98.20;;;;;;5057782;28;20211;-70
2022/03/27 06:07:25;;;;;;;16.50;9.48;;;8.70;98.50;;;;;;5056017;28;20169;-69
2022/03/27 06:09:51;;;;;;;16.08;8.90;;;8.30;99.10;;;;;;5056642;28;20169;-70
2022/03/27 06:12:17;;;;;;;19.45;8.90;;;8.10;99.40;;;;;;5057629;28;20626;-70
2022/03/27 06:14:43;;;;;;;19.52;9.35;;;7.80;99.90;;;;;;5055585;28;20197;-71
2022/03/27 06:17:09;;;;;;;19.90;9.18;;;7.60;99.90;;;;;;5056651;28;20192;-70
2022/03/27 06:19:35;;;;;;;13.18;8.30;;;7.50;99.90;;;;;;5057350;28;20950;-71
2022/03/27 06:22:01;;;;;;;19.77;8.35;;;7.50;99.90;;;;;;5055492;28;20260;-71
2022/03/27 06:24:27;;;;;;;13.73;7.95;;;7.50;99.90;;;;;;5056676;28;20204;-72
2022/03/27 06:26:53;;;;;;;14.98;8.77;;;7.60;99.90;;;;;;5056921;28;20173;-71
2022/03/27 06:29:21;;;;;;;14.55;8.75;;;7.60;99.90;;;;;;5055650;28;20248;-70
2022/03/27 06:31:52;;;;;;;16.38;8.55;;;7.70;99.90;;;;;;5057110;28;20165;-70
2022/03/27 06:34:18;;;;;;;17.13;8.02;;;7.90;99.90;;;;;;5057556;28;20216;-71
2022/03/27 06:36:44;;;;;;;14.90;7.85;;;8.40;99.40;;;;;;5055709;28;20204;-70
2022/03/27 06:39:10;;;;;;;12.25;7.85;;;8.90;98.40;;;;;;5056711;28;20164;-70
2022/03/27 06:41:36;;;;;;;13.63;7.47;;;9.20;98.10;;;;;;5057519;28;20698;-70
2022/03/27 06:44:02;;;;;;;14.00;9.27;;;9.30;98.10;;;;;;5055368;28;20217;-70
2022/03/27 06:46:28;;;;;;;15.70;8.65;;;10.10;97.40;;;;;;5057304;28;20382;-70
2022/03/27 06:48:54;;;;;;;16.35;8.75;;;11.30;95.80;;;;;;5045512;28;20173;-72
2022/03/27 06:51:20;;;;;;;14.63;8.98;;;12.70;93.40;;;;;;5057480;28;20199;-71
2022/03/27 06:53:47;;;;;;;13.30;8.88;;;13.00;92.60;;;;;;5055772;28;20271;-71
2022/03/27 06:56:13;;;;;;;16.48;8.13;;;12.70;93.00;;;;;;5058022;28;20242;-71
2022/03/27 06:58:39;;;;;;;13.60;8.65;;;12.20;93.90;;;;;;5058021;28;20223;-72
2022/03/27 07:03:49;;;;;;;12.52;7.78;;;11.70;94.60;;;;;;5058821;28;20212;-71
2022/03/27 07:06:17;;;;;;;16.40;8.38;;;13.30;92.10;;;;;;5068689;28;20196;-72
2022/03/27 07:08:43;;;;;;;12.15;7.90;;;14.70;90.20;;;;;;5072162;28;20220;-69
2022/03/27 07:11:09;;;;;;;17.25;7.50;;;15.50;89.60;;;;;;5054270;28;20496;-70
2022/03/27 07:13:35;;;;;;;14.60;8.10;;;16.20;87.50;;;;;;5072068;28;20161;-70
2022/03/27 07:16:01;;;;;;;13.60;7.95;;;17.00;86.00;;;;;;5071951;28;20200;-70
2022/03/27 07:18:29;;;;;;;15.48;8.50;;;17.60;83.90;;;;;;5072031;28;20161;-70
2022/03/27 07:20:55;;;;;;;15.35;8.32;;;17.40;83.40;;;;;;5070781;28;20200;-72
2022/03/27 07:23:22;;;;;;;16.90;8.35;;;16.70;86.00;;;;;;5071489;28;20168;-71
2022/03/27 07:25:51;;;;;;;16.27;7.95;;;16.70;86.90;;;;;;5071598;28;20654;-71
2022/03/27 07:28:18;;;;;;;12.75;8.32;;;17.30;82.90;;;;;;5071564;28;20148;-72
2022/03/27 07:30:46;;;;;;;14.38;8.57;;;17.30;83.10;;;;;;5071577;28;20172;-72
2022/03/27 07:33:13;;;;;;;14.95;7.10;;;17.00;82.90;;;;;;5071530;28;20154;-72
2022/03/27 07:35:39;;;;;;;13.25;8.45;;;16.00;86.40;;;;;;5071314;28;20195;-73
2022/03/27 07:38:05;;;;;;;15.13;8.63;;;15.90;85.80;;;;;;5071375;28;20176;-72
2022/03/27 07:40:32;;;;;;;11.48;7.55;;;15.60;86.60;;;;;;5071482;28;20183;-72
2022/03/27 07:42:58;;;;;;;12.77;7.80;;;16.80;85.70;;;;;;5071356;28;20503;-70
2022/03/27 07:45:26;;;;;;;12.32;7.45;;;18.30;81.70;;;;;;5071273;28;20157;-71
2022/03/27 07:47:54;;;;;;;11.63;8.73;;;19.40;77.40;;;;;;5071335;28;20716;-72
2022/03/27 07:50:22;;;;;;;14.38;8.00;;;19.90;77.70;;;;;;5071320;28;20165;-71
2022/03/27 07:52:48;;;;;;;12.82;8.40;;;19.60;78.50;;;;;;5071171;28;20572;-72
2022/03/27 07:55:15;;;;;;;16.15;7.88;;;19.80;78.20;;;;;;5071016;28;20160;-71
2022/03/27 07:57:45;;;;;;;14.40;9.10;;;19.40;79.40;;;;;;5071125;28;20214;-72
2022/03/27 08:00:13;;;;;;;13.70;8.10;;;20.10;77.50;;;;;;5070901;28;20522;-71
2022/03/27 08:02:41;;;;;;;11.65;7.88;;;20.30;76.10;;;;;;5070948;28;20214;-71
2022/03/27 08:05:08;;;;;;;12.05;7.30;;;20.00;76.20;;;;;;5070980;28;20161;-71
2022/03/27 08:07:34;;;;;;;17.70;8.25;;;20.30;75.70;;;;;;5070977;28;20168;-71
2022/03/27 08:10:01;;;;;;;14.73;8.57;;;20.50;74.00;;;;;;5070258;28;20171;-71
2022/03/27 08:12:27;;;;;;;16.10;9.30;;;20.90;74.60;;;;;;5052886;28;20169;-72
2022/03/27 08:14:54;;;;;;;17.90;9.25;;;21.20;75.00;;;;;;5071022;28;20224;-73
2022/03/27 08:17:20;;;;;;;15.00;9.07;;;20.80;75.40;;;;;;5070853;28;20205;-73
2022/03/27 08:19:49;;;;;;;14.70;9.00;;;21.20;74.60;;;;;;5070632;28;20165;-73
2022/03/27 08:22:14;;;;;;;13.65;8.15;;;21.50;73.30;;;;;;5070590;28;20165;-74
2022/03/27 08:24:41;;;;;;;15.40;8.52;;;21.30;73.00;;;;;;5070731;28;20207;-74
2022/03/27 08:27:08;;;;;;;15.15;8.32;;;21.20;73.40;;;;;;5070578;28;20192;-73
2022/03/27 08:29:39;;;;;;;16.38;8.93;;;22.10;71.10;;;;;;5070603;28;20626;-73
2022/03/27 08:32:07;;;;;;;12.75;7.60;;;23.30;70.10;;;;;;5070633;28;20184;-74
2022/03/27 08:34:35;;;;;;;12.45;8.30;;;23.20;66.50;;;;;;5070764;28;20182;-73
2022/03/27 08:37:03;;;;;;;11.63;7.68;;;23.60;67.20;;;;;;5070371;28;20211;-73
2022/03/27 08:39:29;;;;;;;15.63;7.45;;;22.50;70.60;;;;;;5070526;28;20156;-72
2022/03/27 08:41:56;;;;;;;15.60;9.18;;;22.60;70.30;;;;;;5070476;28;20188;-73
2022/03/27 08:44:24;;;;;;;17.20;8.23;;;22.40;70.30;;;;;;5070278;28;20216;-73
2022/03/27 08:46:52;;;;;;;11.93;8.00;;;21.80;71.80;;;;;;5070194;28;20235;-72
2022/03/27 08:49:17;;;;;;;11.63;8.40;;;20.90;73.10;;;;;;5070370;28;20153;-73
2022/03/27 08:52:02;;;;;;;13.55;7.82;;;20.40;73.10;;;;;;5070235;28;20235;-73
2022/03/27 08:54:53;;;;;;;16.35;8.50;;;20.80;72.80;;;;;;5069985;28;20179;-72
2022/03/27 08:57:24;;;;;;;17.75;7.63;;;21.70;72.10;;;;;;5069915;28;20204;-73
2022/03/27 08:59:54;;;;;;;13.95;8.13;;;22.10;70.40;;;;;;5069332;28;20242;-73
2022/03/27 09:02:24;;;;;;;15.60;8.23;;;22.10;70.80;;;;;;5051838;28;20638;-72
2022/03/27 09:04:53;;;;;;;11.27;7.72;;;22.20;71.10;;;;;;5069930;28;20153;-73
2022/03/27 09:07:24;;;;;;;15.40;8.75;;;23.10;69.80;;;;;;5069572;28;20288;-72
2022/03/27 09:09:51;;;;;;;13.07;7.70;;;22.40;72.30;;;;;;5069877;28;20195;-73
2022/03/27 09:12:19;;;;;;;12.35;7.93;;;23.80;69.50;;;;;;5069756;28;20628;-73
2022/03/27 09:14:45;;;;;;;15.82;9.10;;;25.40;67.50;;;;;;5062553;28;20179;-73
2022/03/27 09:17:13;;;;;;;15.35;8.10;;;24.70;68.20;;;;;;5057820;28;20207;-73
2022/03/27 09:19:43;;;;;;;12.68;8.45;;;24.40;68.30;;;;;;5058064;28;20168;-73
2022/03/27 09:22:29;;;;;;;13.57;8.65;;;24.70;68.60;;;;;;5056536;28;20615;-74
2022/03/27 09:25:03;;;;;;;13.57;8.85;;;24.10;68.60;;;;;;5057796;28;20173;-73
2022/03/27 09:27:34;;;;;;;19.92;9.07;;;23.80;70.40;;;;;;5058273;28;20222;-74
2022/03/27 09:30:08;;;;;;;15.98;9.07;;;24.30;67.70;;;;;;5058753;28;20187;-73
2022/03/27 09:32:37;;;;;;;14.77;9.30;;;24.20;68.80;;;;;;5057615;28;20193;-74
2022/03/27 09:35:17;;;;;;;14.63;8.40;;;24.20;68.50;;;;;;5059777;28;20175;-73
2022/03/27 09:37:46;;;;;;;17.90;9.85;;;23.90;68.10;;;;;;5058835;28;20227;-74
2022/03/27 09:40:13;;;;;;;17.63;9.43;;;23.70;68.50;;;;;;5057507;28;21072;-73
2022/03/27 09:42:41;;;;;;;16.38;9.80;;;23.70;68.30;;;;;;5057598;28;20195;-74
2022/03/27 09:45:16;;;;;;;15.40;9.73;;;23.20;70.40;;;;;;5058772;28;20188;-74
2022/03/27 09:47:45;;;;;;;16.15;10.13;;;23.10;69.90;;;;;;5037782;28;20200;-72
2022/03/27 09:50:50;;;;;;;17.05;9.98;;;22.00;70.90;;;;;;5049080;28;20173;-71
2022/03/27 09:53:22;;;;;;;20.90;10.65;;;21.60;70.90;;;;;;5048741;28;20161;-72
2022/03/27 09:56:12;;;;;;;14.93;8.88;;;21.30;74.10;;;;;;5048574;28;20203;-72
2022/03/27 09:58:46;;;;;;;15.90;9.88;;;21.60;71.20;;;;;;5048693;28;20209;-72
2022/03/27 10:01:22;;;;;;;17.42;9.50;;;20.80;73.60;;;;;;5052652;28;20176;-72
2022/03/27 10:04:14;;;;;;;24.02;10.48;;;21.10;72.60;;;;;;5056857;28;20873;-73
2022/03/27 10:06:41;;;;;;;18.58;10.00;;;21.60;73.30;;;;;;5058230;28;20193;-71
2022/03/27 10:09:12;;;;;;;19.00;10.05;;;22.10;71.60;;;;;;5056819;28;20170;-71
2022/03/27 10:11:41;;;;;;;20.33;9.77;;;22.40;68.10;;;;;;5056602;28;20169;-71
2022/03/27 10:14:08;;;;;;;22.42;11.13;;;22.70;68.30;;;;;;5056446;28;20165;-71
2022/03/27 10:16:37;;;;;;;18.48;9.73;;;22.60;69.10;;;;;;5056970;28;20229;-71
2022/03/27 10:19:06;;;;;;;23.55;10.98;;;23.70;68.40;;;;;;5058216;28;20164;-71
2022/03/27 10:21:34;;;;;;;18.58;10.85;;;23.70;66.50;;;;;;5057125;28;20157;-72
2022/03/27 10:24:12;;;;;;;18.83;10.45;;;24.20;64.00;;;;;;5056344;28;20167;-72
2022/03/27 10:26:40;;;;;;;18.88;10.82;;;24.50;64.10;;;;;;5058113;28;20196;-71
2022/03/27 10:29:08;;;;;;;18.05;9.60;;;24.80;65.60;;;;;;5054546;28;20164;-71
2022/03/27 10:31:35;;;;;;;22.42;11.18;;;24.20;63.50;;;;;;5067579;28;20176;-72
2022/03/27 10:34:07;;;;;;;15.75;9.60;;;22.50;63.90;;;;;;5070701;28;20160;-72
2022/03/27 10:36:47;;;;;;;16.30;10.40;;;22.40;66.10;;;;;;5072150;28;20287;-71
2022/03/27 10:39:34;;;;;;;19.25;10.77;;;22.80;64.50;;;;;;5072557;28;20168;-71
2022/03/27 10:42:22;;;;;;;15.23;9.30;;;22.90;64.30;;;;;;5072581;28;20168;-71
2022/03/27 10:44:59;;;;;;;19.60;10.07;;;22.70;65.10;;;;;;5072511;28;20167;-71
2022/03/27 10:47:29;;;;;;;15.93;9.57;;;22.50;65.60;;;;;;5072430;28;20188;-71
2022/03/27 10:50:01;;;;;;;17.75;9.43;;;23.10;66.60;;;;;;5072387;28;20159;-72
2022/03/27 10:52:28;;;;;;;19.25;9.77;;;22.80;66.90;;;;;;5072187;28;20157;-71
2022/03/27 10:54:58;;;;;;;15.13;9.00;;;22.80;68.20;;;;;;5072093;28;20576;-71
2022/03/27 10:57:34;;;;;;;17.40;9.05;;;22.60;68.30;;;;;;5071932;28;20208;-71
2022/03/27 11:00:01;;;;;;;17.67;9.93;;;23.00;65.60;;;;;;5062833;28;20251;-71
2022/03/27 11:02:51;;;;;;;14.98;8.73;;;23.30;64.00;;;;;;5060974;28;20532;-71
2022/03/27 11:05:35;;;;;;;18.50;10.15;;;23.30;68.40;;;;;;5061637;28;20172;-71
2022/03/27 11:08:16;;;;;;;23.08;10.55;;;23.60;64.90;;;;;;5060309;28;20187;-69
2022/03/27 11:10:49;;;;;;;16.35;9.80;;;23.60;65.60;;;;;;5060362;28;20255;-69
2022/03/27 11:13:30;;;;;;;14.70;9.80;;;22.40;67.60;;;;;;5059934;28;20170;-70
2022/03/27 11:16:06;;;;;;;18.20;10.55;;;22.00;66.80;;;;;;5042120;28;20231;-69
2022/03/27 11:18:37;;;;;;;18.10;9.30;;;21.70;69.20;;;;;;5066308;28;20195;-72
2022/03/27 11:21:04;;;;;;;17.75;10.25;;;22.30;69.30;;;;;;5071730;28;20259;-71
2022/03/27 11:23:32;;;;;;;17.95;10.00;;;22.10;67.40;;;;;;5071797;28;20157;-71
2022/03/27 11:26:00;;;;;;;16.20;9.38;;;22.20;67.40;;;;;;5071474;28;20192;-71
2022/03/27 11:28:43;;;;;;;18.35;10.23;;;21.50;68.60;;;;;;5071665;28;20622;-71
2022/03/27 11:31:09;;;;;;;15.00;9.85;;;21.60;69.00;;;;;;5051585;28;20196;-71
2022/03/27 11:33:35;;;;;;;14.38;9.32;;;22.00;68.70;;;;;;5051570;28;20150;-71
2022/03/27 11:36:01;;;;;;;18.85;10.52;;;22.70;69.90;;;;;;5051338;28;20220;-71
2022/03/27 11:38:31;;;;;;;23.17;10.30;;;23.70;68.00;;;;;;5051399;28;20180;-71
2022/03/27 11:41:28;;;;;;;18.55;9.65;;;23.30;66.30;;;;;;5051435;28;20193;-70
2022/03/27 11:44:17;;;;;;;23.45;10.65;;;22.70;67.90;;;;;;5032638;28;20231;-71
2022/03/27 11:46:54;;;;;;;14.65;9.45;;;23.60;67.00;;;;;;5040342;28;20311;-71
2022/03/27 11:49:22;;;;;;;18.30;10.60;;;23.80;66.30;;;;;;5051224;28;20259;-70
2022/03/27 11:52:13;;;;;;;13.60;9.40;;;24.20;66.80;;;;;;5051182;28;20173;-71
2022/03/27 11:54:40;;;;;;;16.40;9.18;;;24.70;66.30;;;;;;5033068;28;20196;-71
2022/03/27 11:57:07;;;;;;;18.52;10.30;;;24.60;63.40;;;;;;5051028;28;20192;-71
2022/03/27 12:00:03;;;;;;;16.02;9.20;;;23.40;65.00;;;;;;5050549;28;20231;-71
2022/03/27 12:02:42;;;;;;;15.77;9.60;;;22.90;64.60;;;;;;5038997;28;20253;-72
2022/03/27 12:05:09;;;;;;;16.58;9.07;;;22.90;65.50;;;;;;5060247;28;20165;-72
2022/03/27 12:07:56;;;;;;;17.00;9.63;;;23.20;65.70;;;;;;5058467;28;20291;-72
2022/03/27 12:10:24;;;;;;;16.52;9.10;;;23.50;67.30;;;;;;5059955;28;20199;-73
2022/03/27 12:13:03;;;;;;;17.35;9.45;;;24.40;64.30;;;;;;5058146;28;20225;-72
2022/03/27 12:15:50;;;;;;;17.73;10.02;;;24.40;62.40;;;;;;5059734;28;20164;-73
2022/03/27 12:18:32;;;;;;;15.43;9.52;;;24.50;62.40;;;;;;5058370;28;20168;-72
2022/03/27 12:21:01;;;;;;;15.30;9.18;;;24.40;65.20;;;;;;5058957;28;20192;-72
2022/03/27 12:23:30;;;;;;;15.95;9.15;;;24.00;62.60;;;;;;5058543;28;20199;-72
2022/03/27 12:31:59;;;;;;;18.60;10.05;;;21.00;70.60;;;;;;5059742;28;20175;-72
2022/03/27 12:34:25;;;;;;;15.77;10.07;;;20.40;70.20;;;;;;5059018;28;20215;-72
2022/03/27 12:37:10;;;;;;;18.65;9.43;;;19.90;71.00;;;;;;5070156;28;20188;-72
2022/03/27 12:40:02;;;;;;;16.80;9.00;;;19.50;71.20;;;;;;5070343;28;20161;-72
2022/03/27 12:42:43;;;;;;;13.65;8.25;;;19.20;73.50;;;;;;5060426;28;20322;-72
2022/03/27 12:45:10;;;;;;;16.70;8.95;;;19.40;73.70;;;;;;5067942;28;20291;-72
2022/03/27 12:47:44;;;;;;;15.20;8.68;;;19.20;73.10;;;;;;5069311;28;20540;-73
2022/03/27 12:50:12;;;;;;;22.48;10.00;;;19.40;74.20;;;;;;5069889;28;20165;-71
2022/03/27 12:52:57;;;;;;;19.33;9.40;;;19.10;74.50;;;;;;5070090;28;20168;-73
2022/03/27 12:55:26;;;;;;;16.98;9.07;;;18.80;74.90;;;;;;5070081;28;20234;-72
2022/03/27 12:57:57;;;;;;;17.98;9.10;;;18.90;73.60;;;;;;5069840;28;20300;-72
2022/03/27 13:00:29;;;;;;;14.80;8.50;;;18.90;73.70;;;;;;5069928;28;20168;-72
2022/03/27 13:03:15;;;;;;;12.68;8.23;;;18.90;74.80;;;;;;5069786;28;20172;-72